Terminal Aerodrome Forecast
Issued by NWS Albuquerque, NM

Home | Current Version | Previous Version | Text Only | Print | Product List | Glossary On
Versions: 1 2 3 4 5 6 7 8 9 10 11 12 13
000
FTUS45 KABQ 221700
TAFABQ
TAF
KABQ 221739Z 2218/2318 VRB04KT P6SM FEW120 SCT150
     FM222130 13011KT P6SM VCTS SCT100CB BKN150
     FM230100 12012G22KT P6SM VCSH BKN100
     FM230300 09010G18KT P6SM BKN100
     FM230600 10010KT P6SM BKN120=

USA.gov is the U.S. government's official web portal to all federal, state and local government web resources and services.